Time;durP1;ratioP1;P1;durP2;ratioP2;P2;SDS_P1;SDS_P2;PMS_P1;PMS_P2;Temp;Humidity;BMP_temperature;BMP_pressure;BME280_temperature;BME280_humidity;BME280_pressure;Samples;Min_cycle;Max_cycle;Signal;HPM_P1;HPM_P2
2022/09/05 00:02:01;;;;;;;;;;;;;;;;;;5137487;27;19969;-82
2022/09/05 00:04:28;;;;;;;;;;;;;;;;;;5137513;27;19944;-83
2022/09/05 00:06:57;;;;;;;;;;;;;;;;;;5102642;27;19972;-83
2022/09/05 00:09:26;;;;;;;;;;;;;;;;;;5118955;27;19915;-83
2022/09/05 00:11:52;;;;;;;;;;;;;;;;;;5137481;27;19912;-83
2022/09/05 00:14:36;;;;;;;;;;;;;;;;;;5137445;27;19998;-83
2022/09/05 00:17:21;;;;;;;;;;;;;;;;;;5137222;27;19916;-83
2022/09/05 00:19:46;;;;;;;;;;;;;;;;;;5118890;27;19980;-83
2022/09/05 00:22:34;;;;;;;;;;;;;;;;;;5137424;27;20321;-83
2022/09/05 00:25:09;;;;;;;;;;;;;;;;;;5123140;27;19916;-83
2022/09/05 00:27:54;;;;;;;;;;;;;;;;;;5137212;27;19916;-82
2022/09/05 00:30:20;;;;;;;;;;;;;;;;;;5136461;27;19964;-82
2022/09/05 00:33:04;;;;;;;;;;;;;;;;;;5118644;27;19916;-83
2022/09/05 00:35:32;;;;;;;;;;;;;;;;;;5101554;27;19915;-82
2022/09/05 00:37:58;;;;;;;;;;;;;;;;;;5136652;27;19919;-82
2022/09/05 00:40:24;;;;;;;;;;;;;;;;;;5118907;27;19987;-83
2022/09/05 00:42:51;;;;;;;;;;;;;;;;;;5136743;27;19915;-83
2022/09/05 00:45:26;;;;;;;;;;;;;;;;;;5136837;27;19964;-83
2022/09/05 00:47:59;;;;;;;;;;;;;;;;;;5118439;27;19922;-83
2022/09/05 00:50:26;;;;;;;;;;;;;;;;;;5136972;27;20329;-83
2022/09/05 00:52:56;;;;;;;;;;;;;;;;;;5136496;27;20320;-83
2022/09/05 00:55:36;;;;;;;;;;;;;;;;;;5136467;27;20275;-83
2022/09/05 00:58:20;;;;;;;;;;;;;;;;;;5136612;27;20327;-83
2022/09/05 01:00:55;;;;;;;;;;;;;;;;;;5136701;27;19919;-83
2022/09/05 01:03:33;;;;;;;;;;;;;;;;;;5118152;27;19915;-83
2022/09/05 01:06:07;;;;;;;;;;;;;;;;;;5136358;27;20010;-84
2022/09/05 01:08:50;;;;;;;;;;;;;;;;;;5136115;27;19950;-84
2022/09/05 01:11:16;;;;;;;;;;;;;;;;;;5136920;27;19919;-83
2022/09/05 01:13:44;;;;;;;;;;;;;;;;;;5136306;27;19915;-83
2022/09/05 01:16:09;;;;;;;;;;;;;;;;;;5136186;27;19962;-83
2022/09/05 01:18:46;;;;;;;;;;;;;;;;;;5136167;27;19947;-83
2022/09/05 01:21:28;;;;;;;;;;;;;;;;;;5101142;27;19915;-83
2022/09/05 01:24:01;;;;;;;;;;;;;;;;;;5100896;27;19923;-83
2022/09/05 01:26:35;;;;;;;;;;;;;;;;;;5118052;27;19929;-83
2022/09/05 01:29:05;;;;;;;;;;;;;;;;;;5136072;27;19958;-83
2022/09/05 01:31:57;;;;;;;;;;;;;;;;;;5117667;27;20332;-83
2022/09/05 01:34:28;;;;;;;;;;;;;;;;;;5096508;27;19919;-83
2022/09/05 01:36:59;;;;;;;;;;;;;;;;;;5117160;27;19964;-84
2022/09/05 01:39:44;;;;;;;;;;;;;;;;;;5135862;27;19915;-83
2022/09/05 01:42:28;;;;;;;;;;;;;;;;;;5135757;27;19911;-83
2022/09/05 01:45:08;;;;;;;;;;;;;;;;;;5117882;27;20312;-83
2022/09/05 01:47:45;;;;;;;;;;;;;;;;;;5117607;27;19988;-83
2022/09/05 01:50:11;;;;;;;;;;;;;;;;;;5135571;27;19923;-83
2022/09/05 01:52:55;;;;;;;;;;;;;;;;;;5135205;27;19922;-83
2022/09/05 01:55:26;;;;;;;;;;;;;;;;;;5135529;27;19958;-83
2022/09/05 01:57:55;;;;;;;;;;;;;;;;;;5135606;27;20256;-83
2022/09/05 02:00:26;;;;;;;;;;;;;;;;;;5117024;27;19977;-83
2022/09/05 02:03:03;;;;;;;;;;;;;;;;;;5117287;28;20006;-82
2022/09/05 02:05:34;;;;;;;;;;;;;;;;;;5116970;28;19952;-83
2022/09/05 02:08:15;;;;;;;;;;;;;;;;;;5135546;28;19922;-83
2022/09/05 02:10:58;;;;;;;;;;;;;;;;;;5135674;28;19912;-83
2022/09/05 02:13:33;;;;;;;;;;;;;;;;;;5135622;28;19924;-83
2022/09/05 02:16:17;;;;;;;;;;;;;;;;;;5135473;28;19915;-84
2022/09/05 02:18:51;;;;;;;;;;;;;;;;;;5100192;28;20096;-83
2022/09/05 02:21:25;;;;;;;;;;;;;;;;;;5135289;28;20386;-83
2022/09/05 02:24:01;;;;;;;;;;;;;;;;;;5135506;28;20226;-83
2022/09/05 02:26:28;;;;;;;;;;;;;;;;;;5117048;28;19922;-83
2022/09/05 02:28:53;;;;;;;;;;;;;;;;;;5117106;28;20341;-83
2022/09/05 02:31:26;;;;;;;;;;;;;;;;;;5135562;28;19998;-83
2022/09/05 02:33:53;;;;;;;;;;;;;;;;;;5116905;28;19964;-83
2022/09/05 02:36:28;;;;;;;;;;;;;;;;;;5116904;28;19922;-83
2022/09/05 02:38:56;;;;;;;;;;;;;;;;;;5135526;28;20324;-83
2022/09/05 02:41:28;;;;;;;;;;;;;;;;;;5117572;28;19972;-83
2022/09/05 02:43:56;;;;;;;;;;;;;;;;;;5117078;28;19916;-83
2022/09/05 02:46:36;;;;;;;;;;;;;;;;;;5135121;28;20353;-83
2022/09/05 02:49:06;;;;;;;;;;;;;;;;;;5116610;28;19965;-83
2022/09/05 02:51:31;;;;;;;;;;;;;;;;;;5116673;28;19938;-83
2022/09/05 02:53:57;;;;;;;;;;;;;;;;;;5135066;28;19916;-83
2022/09/05 02:56:26;;;;;;;;;;;;;;;;;;5099539;28;20304;-83
2022/09/05 02:58:57;;;;;;;;;;;;;;;;;;5135295;28;19980;-84
2022/09/05 03:01:45;;;;;;;;;;;;;;;;;;5135414;28;19919;-83
2022/09/05 03:04:17;;;;;;;;;;;;;;;;;;5117403;27;19915;-82
2022/09/05 03:06:53;;;;;;;;;;;;;;;;;;5138837;27;20298;-83
2022/09/05 03:09:37;;;;;;;;;;;;;;;;;;5120590;27;19923;-83
2022/09/05 03:12:14;;;;;;;;;;;;;;;;;;5138770;27;19915;-83
2022/09/05 03:14:40;;;;;;;;;;;;;;;;;;5138654;27;19916;-83
2022/09/05 03:17:14;;;;;;;;;;;;;;;;;;5138435;27;19939;-83
2022/09/05 03:19:58;;;;;;;;;;;;;;;;;;5120328;27;20010;-83
2022/09/05 03:22:46;;;;;;;;;;;;;;;;;;5138490;27;20316;-83
2022/09/05 03:25:11;;;;;;;;;;;;;;;;;;5120353;27;19916;-83
2022/09/05 03:27:45;;;;;;;;;;;;;;;;;;5138357;27;19980;-84
2022/09/05 03:30:14;;;;;;;;;;;;;;;;;;5138579;27;19919;-83
2022/09/05 03:32:51;;;;;;;;;;;;;;;;;;5120118;27;19919;-84
2022/09/05 03:35:35;;;;;;;;;;;;;;;;;;5138339;27;20305;-83
2022/09/05 03:38:19;;;;;;;;;;;;;;;;;;5138140;27;19915;-83
2022/09/05 03:40:53;;;;;;;;;;;;;;;;;;5138368;27;19918;-84
2022/09/05 03:43:38;;;;;;;;;;;;;;;;;;5120042;27;19964;-83
2022/09/05 03:46:03;;;;;;;;;;;;;;;;;;5137879;27;19911;-83
2022/09/05 03:48:47;;;;;;;;;;;;;;;;;;5119765;27;19915;-83
2022/09/05 03:51:25;;;;;;;;;;;;;;;;;;5119604;27;20006;-83
2022/09/05 03:53:53;;;;;;;;;;;;;;;;;;5137915;27;20309;-83
2022/09/05 03:56:33;;;;;;;;;;;;;;;;;;5137741;27;20314;-83
2022/09/05 03:59:09;;;;;;;;;;;;;;;;;;5137730;27;19926;-83
2022/09/05 04:01:40;;;;;;;;;;;;;;;;;;5115942;28;19926;-83
2022/09/05 04:04:11;;;;;;;;;;;;;;;;;;5115942;28;19916;-84
2022/09/05 04:06:43;;;;;;;;;;;;;;;;;;5115885;28;20486;-83
2022/09/05 04:09:14;;;;;;;;;;;;;;;;;;5115949;28;20343;-83
2022/09/05 04:11:46;;;;;;;;;;;;;;;;;;5115869;28;20287;-83
2022/09/05 04:14:25;;;;;;;;;;;;;;;;;;5116915;28;19965;-83
2022/09/05 04:17:02;;;;;;;;;;;;;;;;;;5115305;28;19920;-83
2022/09/05 04:19:28;;;;;;;;;;;;;;;;;;5116123;28;20256;-83
2022/09/05 04:21:57;;;;;;;;;;;;;;;;;;5115608;28;20313;-83
2022/09/05 04:24:35;;;;;;;;;;;;;;;;;;5115480;28;19923;-83
2022/09/05 04:27:04;;;;;;;;;;;;;;;;;;5115511;28;19915;-83
2022/09/05 04:29:29;;;;;;;;;;;;;;;;;;5115384;28;19916;-84
2022/09/05 04:31:57;;;;;;;;;;;;;;;;;;5116284;28;19969;-84
2022/09/05 04:34:55;;;;;;;;;;;;;;;;;;5115721;28;19923;-83
2022/09/05 04:37:39;;;;;;;;;;;;;;;;;;5071230;28;19973;-83
2022/09/05 04:40:23;;;;;;;;;;;;;;;;;;5116397;28;19922;-83
2022/09/05 04:42:48;;;;;;;;;;;;;;;;;;5116117;28;19916;-84
2022/09/05 04:45:13;;;;;;;;;;;;;;;;;;5097992;28;20002;-83
2022/09/05 04:47:40;;;;;;;;;;;;;;;;;;5097823;28;19916;-84
2022/09/05 04:50:08;;;;;;;;;;;;;;;;;;5114923;28;20248;-83
2022/09/05 04:52:42;;;;;;;;;;;;;;;;;;5115090;28;19930;-83
2022/09/05 04:55:21;;;;;;;;;;;;;;;;;;5116025;28;19916;-83
2022/09/05 04:58:18;;;;;;;;;;;;;;;;;;5116673;28;20356;-83
2022/09/05 05:00:55;;;;;;;;;;;;;;;;;;5076643;27;19966;-84
2022/09/05 05:03:29;;;;;;;;;;;;;;;;;;5135731;27;21382;-83
2022/09/05 05:05:55;;;;;;;;;;;;;;;;;;5117817;27;20332;-83
2022/09/05 05:08:23;;;;;;;;;;;;;;;;;;5118122;27;19947;-83
2022/09/05 05:10:50;;;;;;;;;;;;;;;;;;5136195;27;19951;-86
2022/09/05 05:13:15;;;;;;;;;;;;;;;;;;5136131;27;19971;-83
2022/09/05 05:15:46;;;;;;;;;;;;;;;;;;5135864;27;20268;-83
2022/09/05 05:18:17;;;;;;;;;;;;;;;;;;5100796;27;19915;-83
2022/09/05 05:20:52;;;;;;;;;;;;;;;;;;5117453;27;19915;-83
2022/09/05 05:23:18;;;;;;;;;;;;;;;;;;5135889;27;19916;-84
2022/09/05 05:25:48;;;;;;;;;;;;;;;;;;5117954;27;19915;-83
2022/09/05 05:28:19;;;;;;;;;;;;;;;;;;5116826;27;19915;-83
2022/09/05 05:30:45;;;;;;;;;;;;;;;;;;5117597;27;20010;-83
2022/09/05 05:33:26;;;;;;;;;;;;;;;;;;5117237;27;19966;-83
2022/09/05 05:35:51;;;;;;;;;;;;;;;;;;5117300;27;19916;-84
2022/09/05 05:38:17;;;;;;;;;;;;;;;;;;5135512;27;19980;-83
2022/09/05 05:40:46;;;;;;;;;;;;;;;;;;5135730;27;19976;-83
2022/09/05 05:43:22;;;;;;;;;;;;;;;;;;5101052;27;20013;-83
2022/09/05 05:45:54;;;;;;;;;;;;;;;;;;5120128;27;19975;-84
2022/09/05 05:48:19;;;;;;;;;;;;;;;;;;5117718;27;19915;-79
2022/09/05 05:50:53;;;;;;;;;;;;;;;;;;5135648;27;19918;-79
2022/09/05 05:53:28;;;;;;;;;;;;;;;;;;5117313;27;19915;-78
2022/09/05 05:55:53;;;;;;;;;;;;;;;;;;5135421;27;19964;-79
2022/09/05 05:58:34;;;;;;;;;;;;;;;;;;5135184;27;20005;-80
2022/09/05 06:01:18;;;;;;;;;;;;;;;;;;5113724;28;19970;-79
2022/09/05 06:04:01;;;;;;;;;;;;;;;;;;5115009;28;20368;-79
2022/09/05 06:06:27;;;;;;;;;;;;;;;;;;5114759;28;19924;-78
2022/09/05 06:09:16;;;;;;;;;;;;;;;;;;5115186;28;20229;-79
2022/09/05 06:12:19;;;;;;;;;;;;;;;;;;5076985;28;20345;-78
2022/09/05 06:14:48;;;;;;;;;;;;;;;;;;5032034;28;19917;-79
2022/09/05 06:17:19;;;;;;;;;;;;;;;;;;5032098;28;19917;-78
2022/09/05 06:20:03;;;;;;;;;;;;;;;;;;5074909;28;20355;-79
2022/09/05 06:22:37;;;;;;;;;;;;;;;;;;5114647;28;19916;-78
2022/09/05 06:25:21;;;;;;;;;;;;;;;;;;5114920;28;19979;-78
2022/09/05 06:27:47;;;;;;;;;;;;;;;;;;5114510;28;19916;-79
2022/09/05 06:30:19;;;;;;;;;;;;;;;;;;5114555;28;19923;-78
2022/09/05 06:32:48;;;;;;;;;;;;;;;;;;5113620;28;19923;-78
2022/09/05 06:35:14;;;;;;;;;;;;;;;;;;5113599;28;20351;-79
2022/09/05 06:38:00;;;;;;;;;;;;;;;;;;5114585;28;19963;-78
2022/09/05 06:40:45;;;;;;;;;;;;;;;;;;5118347;28;19916;-78
2022/09/05 06:43:30;;;;;;;;;;;;;;;;;;5118424;28;19915;-78
2022/09/05 06:46:22;;;;;;;;;;;;;;;;;;5118560;28;19920;-79
2022/09/05 06:48:52;;;;;;;;;;;;;;;;;;5116809;28;20360;-80
2022/09/05 06:51:41;;;;;;;;;;;;;;;;;;5119988;28;20342;-79
2022/09/05 06:54:13;;;;;;;;;;;;;;;;;;5119733;28;20260;-79
2022/09/05 06:56:56;;;;;;;;;;;;;;;;;;5120573;28;19916;-80
2022/09/05 06:59:22;;;;;;;;;;;;;;;;;;5121148;28;19916;-79
2022/09/05 07:01:49;;;;;;;;;;;;;;;;;;5141082;27;19982;-82
2022/09/05 07:04:21;;;;;;;;;;;;;;;;;;5144858;27;19922;-81
2022/09/05 07:06:58;;;;;;;;;;;;;;;;;;5144859;27;19935;-82
2022/09/05 07:09:26;;;;;;;;;;;;;;;;;;5144500;27;19938;-81
2022/09/05 07:12:11;;;;;;;;;;;;;;;;;;5138699;27;19915;-80
2022/09/05 07:14:54;;;;;;;;;;;;;;;;;;5138898;27;19946;-80
2022/09/05 07:17:23;;;;;;;;;;;;;;;;;;5138457;27;19958;-81
2022/09/05 07:19:50;;;;;;;;;;;;;;;;;;5138624;27;19951;-81
2022/09/05 07:22:31;;;;;;;;;;;;;;;;;;5120099;27;20380;-81
2022/09/05 07:24:56;;;;;;;;;;;;;;;;;;5138170;27;19919;-80
2022/09/05 07:27:25;;;;;;;;;;;;;;;;;;5119856;27;20332;-81
2022/09/05 07:29:50;;;;;;;;;;;;;;;;;;5138366;27;19916;-81
2022/09/05 07:32:16;;;;;;;;;;;;;;;;;;5119811;27;19923;-81
2022/09/05 07:34:42;;;;;;;;;;;;;;;;;;5119918;27;19941;-80
2022/09/05 07:37:09;;;;;;;;;;;;;;;;;;5120114;27;19915;-81
2022/09/05 07:39:38;;;;;;;;;;;;;;;;;;5119415;27;19923;-81
2022/09/05 07:42:05;;;;;;;;;;;;;;;;;;5138399;27;19915;-80
2022/09/05 07:44:31;;;;;;;;;;;;;;;;;;5119809;27;19922;-81
2022/09/05 07:47:18;;;;;;;;;;;;;;;;;;5138826;27;19915;-81
2022/09/05 07:49:43;;;;;;;;;;;;;;;;;;5137385;27;19919;-81
2022/09/05 07:52:15;;;;;;;;;;;;;;;;;;5120821;27;20025;-80
2022/09/05 07:54:43;;;;;;;;;;;;;;;;;;5119090;27;19915;-80
2022/09/05 07:57:09;;;;;;;;;;;;;;;;;;5119438;27;20004;-80
2022/09/05 07:59:38;;;;;;;;;;;;;;;;;;5119362;27;19915;-80
2022/09/05 08:02:04;;;;;;;;;;;;;;;;;;5118869;27;19919;-79
2022/09/05 08:04:33;;;;;;;;;;;;;;;;;;5120391;27;19923;-81
2022/09/05 08:07:03;;;;;;;;;;;;;;;;;;5119311;27;19948;-79
2022/09/05 08:09:32;;;;;;;;;;;;;;;;;;5103012;27;20820;-78
2022/09/05 08:11:59;;;;;;;;;;;;;;;;;;5137569;27;19916;-78
2022/09/05 08:14:33;;;;;;;;;;;;;;;;;;5137270;27;20301;-79
2022/09/05 08:16:59;;;;;;;;;;;;;;;;;;5137984;27;19986;-81
2022/09/05 08:19:27;;;;;;;;;;;;;;;;;;5137835;27;20352;-79
2022/09/05 08:21:52;;;;;;;;;;;;;;;;;;5137393;27;20325;-80
2022/09/05 08:24:31;;;;;;;;;;;;;;;;;;5119122;27;19915;-80
2022/09/05 08:27:16;;;;;;;;;;;;;;;;;;5137998;27;20304;-81
2022/09/05 08:29:42;;;;;;;;;;;;;;;;;;5138081;27;19937;-80
2022/09/05 08:32:11;;;;;;;;;;;;;;;;;;5121768;27;19915;-80
2022/09/05 08:34:37;;;;;;;;;;;;;;;;;;5119625;27;19939;-79
2022/09/05 08:37:02;;;;;;;;;;;;;;;;;;5136546;27;20302;-80
2022/09/05 08:39:28;;;;;;;;;;;;;;;;;;5118659;27;19916;-79
2022/09/05 08:41:59;;;;;;;;;;;;;;;;;;5137071;27;19915;-79
2022/09/05 08:44:35;;;;;;;;;;;;;;;;;;5137007;27;20362;-79
2022/09/05 08:47:06;;;;;;;;;;;;;;;;;;5118783;27;19915;-78
2022/09/05 08:49:33;;;;;;;;;;;;;;;;;;5138544;27;20321;-84
2022/09/05 08:52:09;;;;;;;;;;;;;;;;;;5118393;27;19938;-83
2022/09/05 08:54:53;;;;;;;;;;;;;;;;;;5118560;27;19922;-79
2022/09/05 08:57:39;;;;;;;;;;;;;;;;;;5136594;27;20333;-80
2022/09/05 09:00:06;;;;;;;;;;;;;;;;;;5136624;27;19923;-81
2022/09/05 09:02:35;;;;;;;;;;;;;;;;;;5137436;27;20375;-83
2022/09/05 09:05:05;;;;;;;;;;;;;;;;;;5136666;27;19915;-82
2022/09/05 09:07:34;;;;;;;;;;;;;;;;;;5137566;27;19923;-81
2022/09/05 09:10:03;;;;;;;;;;;;;;;;;;5136359;27;19923;-83
2022/09/05 09:12:35;;;;;;;;;;;;;;;;;;5136253;27;20260;-82
2022/09/05 09:15:12;;;;;;;;;;;;;;;;;;5117702;27;19915;-82
2022/09/05 09:17:41;;;;;;;;;;;;;;;;;;5136366;27;19964;-84
2022/09/05 09:20:08;;;;;;;;;;;;;;;;;;5136442;27;19998;-84
2022/09/05 09:22:52;;;;;;;;;;;;;;;;;;5137217;27;19920;-85
2022/09/05 09:25:26;;;;;;;;;;;;;;;;;;5136482;27;20006;-82
2022/09/05 09:28:10;;;;;;;;;;;;;;;;;;5118015;27;19915;-87
2022/09/05 09:30:37;;;;;;;;;;;;;;;;;;5136005;27;19974;-82
2022/09/05 09:33:03;;;;;;;;;;;;;;;;;;5117776;27;19958;-83
2022/09/05 09:35:31;;;;;;;;;;;;;;;;;;5118145;27;19915;-85
2022/09/05 09:38:15;;;;;;;;;;;;;;;;;;5136476;27;19947;-84
2022/09/05 09:41:05;;;;;;;;;;;;;;;;;;5135856;27;20017;-82
2022/09/05 09:43:35;;;;;;;;;;;;;;;;;;5117715;27;19916;-85
2022/09/05 09:46:03;;;;;;;;;;;;;;;;;;5117426;28;19972;-83
2022/09/05 09:48:28;;;;;;;;;;;;;;;;;;5136377;27;20002;-85
2022/09/05 09:51:00;;;;;;;;;;;;;;;;;;5135870;27;19954;-83
2022/09/05 09:53:28;;;;;;;;;;;;;;;;;;5135766;27;19935;-80
2022/09/05 09:55:56;;;;;;;;;;;;;;;;;;5135467;27;19919;-83
2022/09/05 09:58:22;;;;;;;;;;;;;;;;;;5136197;27;19915;-81
2022/09/05 10:00:50;;;;;;;;;;;;;;;;;;5135272;27;19919;-81
2022/09/05 10:03:23;;;;;;;;;;;;;;;;;;5135175;27;19943;-79
2022/09/05 10:05:52;;;;;;;;;;;;;;;;;;5117208;28;19964;-81
2022/09/05 10:08:50;;;;;;;;;;;;;;;;;;5135758;28;19977;-82
2022/09/05 10:11:19;;;;;;;;;;;;;;;;;;5079477;28;19922;-83
2022/09/05 10:13:50;;;;;;;;;;;;;;;;;;5119334;27;19921;-83
2022/09/05 10:16:22;;;;;;;;;;;;;;;;;;5140105;27;19916;-85
2022/09/05 10:18:47;;;;;;;;;;;;;;;;;;5140164;27;19915;-83
2022/09/05 10:21:32;;;;;;;;;;;;;;;;;;5140064;27;19922;-85
2022/09/05 10:24:20;;;;;;;;;;;;;;;;;;5139576;27;20320;-85
2022/09/05 10:26:55;;;;;;;;;;;;;;;;;;5126069;27;19915;-82
2022/09/05 10:29:39;;;;;;;;;;;;;;;;;;5120809;27;19923;-80
2022/09/05 10:32:28;;;;;;;;;;;;;;;;;;5120627;27;19915;-82
2022/09/05 10:34:57;;;;;;;;;;;;;;;;;;5125366;27;19916;-82
2022/09/05 10:37:22;;;;;;;;;;;;;;;;;;5139116;27;19916;-82
2022/09/05 10:39:50;;;;;;;;;;;;;;;;;;5120742;27;19915;-82
2022/09/05 10:42:36;;;;;;;;;;;;;;;;;;5139599;27;20320;-81
2022/09/05 10:45:01;;;;;;;;;;;;;;;;;;5121120;27;19998;-83
2022/09/05 10:47:39;;;;;;;;;;;;;;;;;;5120858;27;19947;-82
2022/09/05 10:50:17;;;;;;;;;;;;;;;;;;5139448;27;20340;-86
2022/09/05 10:53:05;;;;;;;;;;;;;;;;;;5139467;27;19961;-82
2022/09/05 10:55:39;;;;;;;;;;;;;;;;;;5120887;27;20051;-81
2022/09/05 10:58:12;;;;;;;;;;;;;;;;;;5139099;27;19998;-79
2022/09/05 11:00:50;;;;;;;;;;;;;;;;;;5120329;27;19970;-82
2022/09/05 11:03:21;;;;;;;;;;;;;;;;;;5138640;27;20002;-82
2022/09/05 11:05:58;;;;;;;;;;;;;;;;;;5138889;27;19915;-80
2022/09/05 11:08:30;;;;;;;;;;;;;;;;;;5120965;27;19915;-82
2022/09/05 11:11:02;;;;;;;;;;;;;;;;;;5123196;27;20006;-81
2022/09/05 11:13:27;;;;;;;;;;;;;;;;;;5138604;27;20296;-82
2022/09/05 11:16:09;;;;;;;;;;;;;;;;;;5138406;27;20010;-82
2022/09/05 11:18:42;;;;;;;;;;;;;;;;;;5138623;27;20332;-81
2022/09/05 11:21:10;;;;;;;;;;;;;;;;;;5139156;27;19915;-85
2022/09/05 11:23:38;;;;;;;;;;;;;;;;;;5138606;27;19974;-79
2022/09/05 11:26:04;;;;;;;;;;;;;;;;;;5138756;27;19919;-78
2022/09/05 11:28:39;;;;;;;;;;;;;;;;;;5121145;27;20284;-82
2022/09/05 11:31:08;;;;;;;;;;;;;;;;;;5119715;27;19911;-81
2022/09/05 11:33:42;;;;;;;;;;;;;;;;;;5120760;27;20412;-81
2022/09/05 11:36:20;;;;;;;;;;;;;;;;;;5138191;27;19923;-82
2022/09/05 11:39:04;;;;;;;;;;;;;;;;;;5138043;27;20360;-81
2022/09/05 11:41:32;;;;;;;;;;;;;;;;;;5138180;27;19912;-81
2022/09/05 11:44:13;;;;;;;;;;;;;;;;;;5137992;27;19915;-81
2022/09/05 11:46:41;;;;;;;;;;;;;;;;;;5119302;27;20569;-81
2022/09/05 11:49:15;;;;;;;;;;;;;;;;;;5138049;27;19916;-81
2022/09/05 11:51:59;;;;;;;;;;;;;;;;;;5137973;27;19911;-82
2022/09/05 11:54:45;;;;;;;;;;;;;;;;;;5137832;27;20324;-81
2022/09/05 11:57:27;;;;;;;;;;;;;;;;;;5119309;27;19931;-79
2022/09/05 11:59:52;;;;;;;;;;;;;;;;;;5137457;27;20256;-81
2022/09/05 12:02:37;;;;;;;;;;;;;;;;;;5138984;27;19919;-83
2022/09/05 12:05:13;;;;;;;;;;;;;;;;;;5120050;27;20253;-82
2022/09/05 12:07:38;;;;;;;;;;;;;;;;;;5137490;27;19922;-80
2022/09/05 12:10:15;;;;;;;;;;;;;;;;;;5137756;27;19915;-81
2022/09/05 12:12:54;;;;;;;;;;;;;;;;;;5119443;27;19920;-80
2022/09/05 12:15:33;;;;;;;;;;;;;;;;;;5137497;27;19916;-81
2022/09/05 12:18:18;;;;;;;;;;;;;;;;;;5119498;27;20249;-81
2022/09/05 12:21:02;;;;;;;;;;;;;;;;;;5137473;27;19922;-80
2022/09/05 12:23:31;;;;;;;;;;;;;;;;;;5137147;27;19915;-80
2022/09/05 12:26:04;;;;;;;;;;;;;;;;;;5138121;27;19995;-82
2022/09/05 12:28:31;;;;;;;;;;;;;;;;;;5118788;27;19915;-81
2022/09/05 12:31:10;;;;;;;;;;;;;;;;;;5137105;27;19919;-80
2022/09/05 12:33:36;;;;;;;;;;;;;;;;;;5137008;27;19915;-78
2022/09/05 12:36:06;;;;;;;;;;;;;;;;;;5118612;27;19916;-80
2022/09/05 12:38:34;;;;;;;;;;;;;;;;;;5118537;27;19938;-81
2022/09/05 12:41:13;;;;;;;;;;;;;;;;;;5136660;27;20363;-84
2022/09/05 12:43:50;;;;;;;;;;;;;;;;;;5100975;27;19915;-84
2022/09/05 12:46:21;;;;;;;;;;;;;;;;;;5118232;27;19995;-81
2022/09/05 12:49:04;;;;;;;;;;;;;;;;;;5118226;27;19922;-83
2022/09/05 12:51:32;;;;;;;;;;;;;;;;;;5118408;27;20229;-81
2022/09/05 12:54:02;;;;;;;;;;;;;;;;;;5118373;27;19959;-80
2022/09/05 12:56:46;;;;;;;;;;;;;;;;;;5117900;27;19916;-82
2022/09/05 12:59:15;;;;;;;;;;;;;;;;;;5136101;27;19951;-83
2022/09/05 13:01:42;;;;;;;;;;;;;;;;;;5117788;27;19927;-86
2022/09/05 13:04:14;;;;;;;;;;;;;;;;;;5118556;27;19916;-86
2022/09/05 13:06:45;;;;;;;;;;;;;;;;;;5136165;27;19938;-83
2022/09/05 13:09:18;;;;;;;;;;;;;;;;;;5118013;27;20217;-84
2022/09/05 13:11:46;;;;;;;;;;;;;;;;;;5117729;27;20012;-84
2022/09/05 13:14:16;;;;;;;;;;;;;;;;;;5136063;27;19915;-83
2022/09/05 13:16:42;;;;;;;;;;;;;;;;;;5117728;27;19915;-85
2022/09/05 13:19:10;;;;;;;;;;;;;;;;;;5117654;27;19916;-85
2022/09/05 13:21:39;;;;;;;;;;;;;;;;;;5117533;27;19915;-86
2022/09/05 13:24:10;;;;;;;;;;;;;;;;;;5100657;27;20014;-84
2022/09/05 13:26:42;;;;;;;;;;;;;;;;;;5135487;27;20350;-85
2022/09/05 13:29:21;;;;;;;;;;;;;;;;;;5135791;27;19969;-84
2022/09/05 13:31:49;;;;;;;;;;;;;;;;;;5117832;27;19915;-83
2022/09/05 13:34:14;;;;;;;;;;;;;;;;;;5137355;27;19915;-83
2022/09/05 13:36:41;;;;;;;;;;;;;;;;;;5135754;27;19937;-84
2022/09/05 13:39:08;;;;;;;;;;;;;;;;;;5117324;27;19964;-84
2022/09/05 13:41:35;;;;;;;;;;;;;;;;;;5117338;27;19911;-82
2022/09/05 13:44:06;;;;;;;;;;;;;;;;;;5135804;27;20424;-83
2022/09/05 13:47:00;;;;;;;;;;;;;;;;;;5135531;27;19912;-84
2022/09/05 13:49:30;;;;;;;;;;;;;;;;;;5044442;27;20011;-82
2022/09/05 13:52:15;;;;;;;;;;;;;;;;;;5117345;28;19921;-82
2022/09/05 13:55:10;;;;;;;;;;;;;;;;;;5117348;27;19922;-84
2022/09/05 13:57:39;;;;;;;;;;;;;;;;;;5113028;27;19962;-83
2022/09/05 14:00:16;;;;;;;;;;;;;;;;;;5135328;27;19915;-83
2022/09/05 14:03:01;;;;;;;;;;;;;;;;;;5135339;27;19927;-84
2022/09/05 14:05:26;;;;;;;;;;;;;;;;;;5135359;27;19915;-83
2022/09/05 14:07:57;;;;;;;;;;;;;;;;;;5135335;27;19922;-83
2022/09/05 14:10:27;;;;;;;;;;;;;;;;;;5135099;27;20314;-83
2022/09/05 14:12:57;;;;;;;;;;;;;;;;;;5135378;28;19921;-85
2022/09/05 14:15:41;;;;;;;;;;;;;;;;;;5116747;28;19980;-83
2022/09/05 14:21:14;;;;;;;;;;;;;;;;;;5135338;28;19915;-85
2022/09/05 14:21:21;;;;;;;;;;;;;;;;;;5127202;28;19919;-84
2022/09/05 14:23:55;;;;;;;;;;;;;;;;;;5100054;28;20324;-83
2022/09/05 14:26:20;;;;;;;;;;;;;;;;;;5134871;28;19916;-83
2022/09/05 14:28:52;;;;;;;;;;;;;;;;;;5135128;28;20347;-84
2022/09/05 14:31:19;;;;;;;;;;;;;;;;;;5135121;28;19915;-84
2022/09/05 14:33:54;;;;;;;;;;;;;;;;;;5116858;28;19915;-82
2022/09/05 14:36:25;;;;;;;;;;;;;;;;;;5100170;28;19916;-83
2022/09/05 14:38:51;;;;;;;;;;;;;;;;;;5134764;28;19951;-82
2022/09/05 14:41:22;;;;;;;;;;;;;;;;;;5135132;28;19916;-84
2022/09/05 14:43:50;;;;;;;;;;;;;;;;;;5135012;28;19921;-85
2022/09/05 14:46:34;;;;;;;;;;;;;;;;;;5134849;28;19978;-84
2022/09/05 14:49:18;;;;;;;;;;;;;;;;;;5135085;28;20002;-81
2022/09/05 14:51:46;;;;;;;;;;;;;;;;;;5135148;28;19998;-84
2022/09/05 14:54:18;;;;;;;;;;;;;;;;;;5117317;28;19924;-80
2022/09/05 14:56:44;;;;;;;;;;;;;;;;;;5134910;28;19924;-80
2022/09/05 14:59:36;;;;;;;;;;;;;;;;;;5117493;27;19998;-80
2022/09/05 15:02:10;;;;;;;;;;;;;;;;;;5115388;27;19942;-80
2022/09/05 15:04:55;;;;;;;;;;;;;;;;;;5138753;27;19922;-79
2022/09/05 15:07:24;;;;;;;;;;;;;;;;;;5120413;27;19979;-81
2022/09/05 15:10:07;;;;;;;;;;;;;;;;;;5119893;27;19915;-81
2022/09/05 15:12:32;;;;;;;;;;;;;;;;;;5138776;27;19915;-81
2022/09/05 15:15:07;;;;;;;;;;;;;;;;;;5120168;27;19915;-81
2022/09/05 15:17:32;;;;;;;;;;;;;;;;;;5138327;27;19927;-81
2022/09/05 15:20:00;;;;;;;;;;;;;;;;;;5120148;27;20012;-81
2022/09/05 15:22:29;;;;;;;;;;;;;;;;;;5119939;27;20357;-79
2022/09/05 15:24:59;;;;;;;;;;;;;;;;;;5102693;27;19920;-81
2022/09/05 15:27:26;;;;;;;;;;;;;;;;;;5119980;27;19915;-81
2022/09/05 15:29:55;;;;;;;;;;;;;;;;;;5119859;27;19919;-82
2022/09/05 15:32:22;;;;;;;;;;;;;;;;;;5138153;27;19915;-81
2022/09/05 15:34:48;;;;;;;;;;;;;;;;;;5119819;27;20290;-81
2022/09/05 15:37:39;;;;;;;;;;;;;;;;;;5119835;27;19927;-81
2022/09/05 15:40:12;;;;;;;;;;;;;;;;;;5133013;27;20325;-81
2022/09/05 15:42:38;;;;;;;;;;;;;;;;;;5119559;27;19916;-80
2022/09/05 15:45:08;;;;;;;;;;;;;;;;;;5119454;27;19964;-81
2022/09/05 15:47:33;;;;;;;;;;;;;;;;;;5119472;27;20425;-80
2022/09/05 15:50:03;;;;;;;;;;;;;;;;;;5119745;27;19920;-81
2022/09/05 15:52:29;;;;;;;;;;;;;;;;;;5119109;27;19947;-81
2022/09/05 15:55:14;;;;;;;;;;;;;;;;;;5137782;27;19966;-79
2022/09/05 15:57:42;;;;;;;;;;;;;;;;;;5137856;27;19916;-79
2022/09/05 16:00:09;;;;;;;;;;;;;;;;;;5137846;27;20360;-81
2022/09/05 16:02:44;;;;;;;;;;;;;;;;;;5118994;27;20332;-80
2022/09/05 16:05:11;;;;;;;;;;;;;;;;;;5119150;27;19916;-80
2022/09/05 16:07:40;;;;;;;;;;;;;;;;;;5137187;27;20017;-80
2022/09/05 16:10:06;;;;;;;;;;;;;;;;;;5137389;27;19922;-81
2022/09/05 16:12:33;;;;;;;;;;;;;;;;;;5137058;27;19915;-81
2022/09/05 16:14:59;;;;;;;;;;;;;;;;;;5119428;27;20252;-81
2022/09/05 16:17:26;;;;;;;;;;;;;;;;;;5119031;27;19954;-81
2022/09/05 16:20:12;;;;;;;;;;;;;;;;;;5119154;27;19922;-84
2022/09/05 16:22:40;;;;;;;;;;;;;;;;;;5136742;27;20251;-81
2022/09/05 16:25:10;;;;;;;;;;;;;;;;;;5137037;27;19922;-81
2022/09/05 16:27:39;;;;;;;;;;;;;;;;;;5118704;27;20354;-81
2022/09/05 16:30:04;;;;;;;;;;;;;;;;;;5136989;27;19916;-82
2022/09/05 16:32:30;;;;;;;;;;;;;;;;;;5137012;27;19921;-82
2022/09/05 16:34:56;;;;;;;;;;;;;;;;;;5118506;27;19922;-81
2022/09/05 16:37:27;;;;;;;;;;;;;;;;;;5118897;27;20031;-81
2022/09/05 16:39:58;;;;;;;;;;;;;;;;;;5136868;27;19924;-81
2022/09/05 16:42:43;;;;;;;;;;;;;;;;;;5118419;27;19911;-82
2022/09/05 16:45:12;;;;;;;;;;;;;;;;;;5117534;27;19980;-81
2022/09/05 16:47:40;;;;;;;;;;;;;;;;;;5136736;27;19911;-81
2022/09/05 16:50:18;;;;;;;;;;;;;;;;;;5118090;27;19979;-81
2022/09/05 16:52:43;;;;;;;;;;;;;;;;;;5136633;27;20387;-82
2022/09/05 16:55:12;;;;;;;;;;;;;;;;;;5136490;27;19969;-81
2022/09/05 16:57:39;;;;;;;;;;;;;;;;;;5117999;27;19916;-81
2022/09/05 17:00:04;;;;;;;;;;;;;;;;;;5136429;27;19950;-81
2022/09/05 17:02:48;;;;;;;;;;;;;;;;;;5117819;27;19958;-81
2022/09/05 17:05:26;;;;;;;;;;;;;;;;;;5136100;27;20306;-81
2022/09/05 17:07:56;;;;;;;;;;;;;;;;;;5118089;27;20252;-81
2022/09/05 17:10:24;;;;;;;;;;;;;;;;;;5100792;27;19972;-81
2022/09/05 17:12:56;;;;;;;;;;;;;;;;;;5118077;27;19919;-81
2022/09/05 17:15:21;;;;;;;;;;;;;;;;;;5117759;27;19955;-82
2022/09/05 17:17:56;;;;;;;;;;;;;;;;;;5136158;27;19946;-81
2022/09/05 17:20:22;;;;;;;;;;;;;;;;;;5135930;27;20003;-81
2022/09/05 17:22:52;;;;;;;;;;;;;;;;;;5116784;27;19916;-81
2022/09/05 17:25:20;;;;;;;;;;;;;;;;;;5136039;27;19919;-81
2022/09/05 17:27:49;;;;;;;;;;;;;;;;;;5117591;27;19919;-81